Time;durP1;ratioP1;P1;durP2;ratioP2;P2;SDS_P1;SDS_P2;PMS_P1;PMS_P2;Temp;Humidity;BMP_temperature;BMP_pressure;BME280_temperature;BME280_humidity;BME280_pressure;Samples;Min_cycle;Max_cycle;Signal;HPM_P1;HPM_P2
2023/01/14 00:01:46;;;;;;;3.80;0.30;;;6.90;99.90;;;;;;6184075;23;20475;-79
2023/01/14 00:04:12;;;;;;;4.85;0.20;;;6.80;99.90;;;;;;6210051;23;20067;-78
2023/01/14 00:06:38;;;;;;;8.38;0.30;;;6.80;99.90;;;;;;6184184;23;20112;-79
2023/01/14 00:09:10;;;;;;;6.28;0.40;;;6.80;99.90;;;;;;6184229;23;20008;-79
2023/01/14 00:11:51;;;;;;;4.63;0.40;;;6.80;99.90;;;;;;6185011;23;20012;-78
2023/01/14 00:14:22;;;;;;;4.40;0.30;;;6.80;99.90;;;;;;6185577;23;20067;-78
2023/01/14 00:16:53;;;;;;;8.27;0.30;;;6.70;99.90;;;;;;6185762;23;20008;-79
2023/01/14 00:19:19;;;;;;;;;;;6.80;99.90;;;;;;6161706;23;20013;-78
2023/01/14 00:21:45;;;;;;;9.27;0.60;;;6.70;99.90;;;;;;6212540;23;19971;-79
2023/01/14 00:24:15;;;;;;;4.63;0.30;;;6.80;99.90;;;;;;6185822;23;20434;-78
2023/01/14 00:26:40;;;;;;;;;;;6.80;99.90;;;;;;6185742;23;20092;-78
2023/01/14 00:29:14;;;;;;;6.63;0.68;;;6.80;99.90;;;;;;6212289;23;19931;-78
2023/01/14 00:31:40;;;;;;;7.95;0.40;;;6.80;99.90;;;;;;6185907;23;20016;-79
2023/01/14 00:34:06;;;;;;;5.55;0.80;;;6.70;99.90;;;;;;6185394;23;20342;-78
2023/01/14 00:36:31;;;;;;;9.55;0.60;;;6.60;99.90;;;;;;6160759;23;20036;-79
2023/01/14 00:38:57;;;;;;;10.50;0.50;;;6.60;99.90;;;;;;6185584;23;20001;-79
2023/01/14 00:41:25;;;;;;;10.55;0.50;;;6.60;99.90;;;;;;6185388;23;20020;-79
2023/01/14 00:43:53;;;;;;;8.90;0.60;;;6.50;99.90;;;;;;6185174;23;20012;-79
2023/01/14 00:46:21;;;;;;;10.98;0.50;;;6.40;99.90;;;;;;6160926;23;20028;-79
2023/01/14 00:48:47;;;;;;;4.97;0.30;;;6.40;99.90;;;;;;6185597;23;20008;-79
2023/01/14 00:51:15;;;;;;;10.77;0.68;;;6.30;99.90;;;;;;6161603;23;20091;-79
2023/01/14 00:53:42;;;;;;;7.15;0.65;;;6.40;99.90;;;;;;6160445;23;20009;-79
2023/01/14 00:56:09;;;;;;;11.27;0.70;;;6.50;99.90;;;;;;6184972;23;20127;-79
2023/01/14 00:58:36;;;;;;;8.80;0.57;;;6.60;99.90;;;;;;6212324;23;20346;-79
2023/01/14 01:01:02;;;;;;;7.25;0.70;;;6.60;99.90;;;;;;6185370;23;20031;-79
2023/01/14 01:03:28;;;;;;;7.60;0.50;;;6.60;99.90;;;;;;6185405;23;20004;-79
2023/01/14 01:05:54;;;;;;;6.60;0.55;;;6.60;99.90;;;;;;6185443;23;20009;-78
2023/01/14 01:08:21;;;;;;;8.45;0.50;;;6.60;99.90;;;;;;6160568;23;20428;-78
2023/01/14 01:10:50;;;;;;;6.35;0.50;;;6.60;99.90;;;;;;6185008;23;20019;-78
2023/01/14 01:13:17;;;;;;;6.45;0.57;;;6.60;99.90;;;;;;6185402;23;20019;-79
2023/01/14 01:15:43;;;;;;;5.40;0.60;;;6.60;99.90;;;;;;6185013;23;20509;-79
2023/01/14 01:18:11;;;;;;;8.93;0.80;;;6.60;99.90;;;;;;6212234;23;20011;-78
2023/01/14 01:20:37;;;;;;;4.18;0.30;;;6.50;99.90;;;;;;6185664;23;20027;-79
2023/01/14 01:23:04;;;;;;;8.18;0.47;;;6.50;99.90;;;;;;6184314;23;20000;-78
2023/01/14 01:25:30;;;;;;;7.10;0.90;;;6.50;99.90;;;;;;6160299;23;20013;-79
2023/01/14 01:27:56;;;;;;;8.68;0.73;;;6.50;99.90;;;;;;6184544;23;20438;-78
2023/01/14 01:30:23;;;;;;;11.23;0.40;;;6.60;99.90;;;;;;6185437;23;20009;-80
2023/01/14 01:32:49;;;;;;;8.85;0.50;;;6.60;99.90;;;;;;6185134;23;20060;-79
2023/01/14 01:35:15;;;;;;;6.72;0.40;;;6.60;99.90;;;;;;6160512;23;20009;-80
2023/01/14 01:37:41;;;;;;;10.18;0.50;;;6.50;99.90;;;;;;6184558;23;20013;-79
2023/01/14 01:40:09;;;;;;;8.45;0.40;;;6.50;99.90;;;;;;6184562;23;20040;-79
2023/01/14 01:42:35;;;;;;;11.27;0.95;;;6.60;99.90;;;;;;6210547;23;20016;-79
2023/01/14 01:45:33;;;;;;;7.63;0.50;;;6.60;99.90;;;;;;6184866;23;20092;-79
2023/01/14 01:48:10;;;;;;;7.43;0.60;;;6.60;99.90;;;;;;6211403;23;20307;-78
2023/01/14 01:50:36;;;;;;;7.07;0.50;;;6.50;99.90;;;;;;6212406;23;20009;-79
2023/01/14 01:53:05;;;;;;;6.93;0.45;;;6.40;99.90;;;;;;6184242;23;20504;-78
2023/01/14 01:55:34;;;;;;;5.15;0.47;;;6.20;99.90;;;;;;6184778;23;20035;-79
2023/01/14 01:58:01;;;;;;;7.50;0.70;;;6.20;99.90;;;;;;6184816;23;20012;-79
2023/01/14 02:00:27;;;;;;;6.22;0.50;;;6.10;99.90;;;;;;6211560;23;20270;-78
2023/01/14 02:03:08;;;;;;;8.68;0.40;;;6.10;99.90;;;;;;6184618;23;20104;-79
2023/01/14 02:05:34;;;;;;;8.40;0.40;;;6.00;99.90;;;;;;6184991;23;20013;-78
2023/01/14 02:08:00;;;;;;;7.53;0.90;;;5.90;99.90;;;;;;6184320;23;20032;-79
2023/01/14 02:10:49;;;;;;;4.57;0.50;;;6.00;99.90;;;;;;6184628;23;20517;-79
2023/01/14 02:13:41;;;;;;;8.97;0.87;;;5.90;99.90;;;;;;6184663;23;20103;-79
2023/01/14 02:16:27;;;;;;;10.20;1.27;;;5.90;99.90;;;;;;6211396;23;20456;-78
2023/01/14 02:19:30;;;;;;;7.13;0.60;;;5.80;99.90;;;;;;6160064;23;20008;-79
2023/01/14 02:22:48;;;;;;;16.45;1.70;;;5.80;99.90;;;;;;6184447;23;20175;-79
2023/01/14 02:25:32;;;;;;;11.23;1.45;;;5.80;99.90;;;;;;6148383;23;20040;-79
2023/01/14 02:28:34;;;;;;;10.00;1.08;;;5.80;99.90;;;;;;6148192;23;20092;-79
2023/01/14 02:31:24;;;;;;;6.85;0.90;;;5.70;99.90;;;;;;6123700;23;20525;-79
2023/01/14 02:34:19;;;;;;;15.98;1.75;;;5.70;99.90;;;;;;6123428;23;20014;-78
2023/01/14 02:37:05;;;;;;;8.48;1.13;;;5.70;99.90;;;;;;6136095;23;20006;-79
2023/01/14 02:39:37;;;;;;;11.05;1.27;;;5.70;99.90;;;;;;6124182;23;20009;-79
2023/01/14 02:45:15;;;;;;;8.20;0.70;;;5.60;99.90;;;;;;6123249;23;20041;-79
2023/01/14 02:47:43;;;;;;;13.65;0.70;;;5.60;99.90;;;;;;6148452;23;20068;-79
2023/01/14 02:50:13;;;;;;;14.98;2.15;;;5.60;99.90;;;;;;6147976;23;20120;-79
2023/01/14 02:52:39;;;;;;;16.02;1.00;;;5.60;99.90;;;;;;6123226;23;20010;-78
2023/01/14 02:55:35;;;;;;;12.35;1.65;;;5.50;99.90;;;;;;6198655;23;20012;-80
2023/01/14 02:58:35;;;;;;;12.13;0.70;;;5.40;99.90;;;;;;6184295;23;20032;-79
2023/01/14 03:01:15;;;;;;;7.45;0.50;;;5.30;99.90;;;;;;6184204;23;20071;-79
2023/01/14 03:03:49;;;;;;;;;;;5.30;99.90;;;;;;6160066;23;20015;-79
2023/01/14 03:06:34;;;;;;;7.47;0.50;;;5.30;99.90;;;;;;6209052;23;19910;-79
2023/01/14 03:09:16;;;;;;;15.68;1.00;;;5.30;99.90;;;;;;6159400;23;20012;-79
2023/01/14 03:11:56;;;;;;;14.20;0.90;;;5.30;99.90;;;;;;6209310;23;20430;-79
2023/01/14 03:14:38;;;;;;;11.80;1.13;;;5.20;99.90;;;;;;6184303;23;20052;-79
2023/01/14 03:17:13;;;;;;;9.90;1.20;;;5.30;99.90;;;;;;6184402;23;20009;-79
2023/01/14 03:19:45;;;;;;;9.88;1.50;;;5.30;99.90;;;;;;6183906;23;20013;-79
2023/01/14 03:22:12;;;;;;;10.48;0.77;;;5.20;99.90;;;;;;6159438;23;20449;-79
2023/01/14 03:24:43;;;;;;;8.02;0.98;;;5.20;99.90;;;;;;6159905;23;20030;-79
2023/01/14 03:27:23;;;;;;;9.93;0.70;;;5.10;99.90;;;;;;6183908;23;20018;-78
2023/01/14 03:30:07;;;;;;;8.70;0.90;;;5.20;99.90;;;;;;6209479;23;20010;-80
2023/01/14 03:32:45;;;;;;;10.75;0.70;;;5.10;99.90;;;;;;6184383;23;20334;-80
2023/01/14 03:35:18;;;;;;;7.47;0.47;;;5.10;99.90;;;;;;6183443;23;20027;-79
2023/01/14 03:37:57;;;;;;;10.07;0.80;;;5.10;99.90;;;;;;6184476;23;20044;-79
2023/01/14 03:40:26;;;;;;;9.10;0.70;;;5.10;99.90;;;;;;6208940;23;20521;-79
2023/01/14 03:42:57;;;;;;;9.65;0.60;;;5.10;99.90;;;;;;6184113;23;20547;-79
2023/01/14 03:45:34;;;;;;;8.93;0.55;;;5.00;99.90;;;;;;6183855;23;20016;-79
2023/01/14 03:48:00;;;;;;;8.00;0.73;;;5.00;99.90;;;;;;6210358;23;20012;-79
2023/01/14 03:50:54;;;;;;;3.97;0.40;;;5.00;99.90;;;;;;6184135;23;20462;-79
2023/01/14 03:53:53;;;;;;;10.82;0.50;;;5.00;99.90;;;;;;6184184;23;20001;-79
2023/01/14 03:56:30;;;;;;;8.07;0.40;;;5.10;99.90;;;;;;6209101;23;20079;-79
2023/01/14 03:59:10;;;;;;;6.47;0.40;;;5.10;99.90;;;;;;6183899;23;20028;-78
2023/01/14 04:01:44;;;;;;;9.05;0.65;;;5.00;99.90;;;;;;6210430;23;20055;-80
2023/01/14 04:04:11;;;;;;;6.70;0.55;;;5.10;99.90;;;;;;6183834;23;20011;-79
2023/01/14 04:06:38;;;;;;;8.57;0.95;;;5.20;99.90;;;;;;6184373;23;20380;-79
2023/01/14 04:09:08;;;;;;;8.40;0.40;;;5.20;99.90;;;;;;6183624;23;20008;-78
2023/01/14 04:11:34;;;;;;;11.02;0.65;;;5.10;99.90;;;;;;6184132;23;20461;-79
2023/01/14 04:16:44;;;;;;;9.45;0.52;;;5.20;99.90;;;;;;6184171;23;20059;-79
2023/01/14 04:19:10;;;;;;;9.93;1.30;;;5.10;99.90;;;;;;6183250;23;20004;-78
2023/01/14 04:21:35;;;;;;;8.77;0.60;;;5.10;99.90;;;;;;6184350;23;20155;-78
2023/01/14 04:24:01;;;;;;;8.52;0.50;;;5.10;99.90;;;;;;6209998;23;20000;-79
2023/01/14 04:26:28;;;;;;;11.57;1.55;;;5.10;99.90;;;;;;6210310;23;20041;-77
2023/01/14 04:28:54;;;;;;;15.57;1.63;;;5.20;99.90;;;;;;6183660;23;20009;-78
2023/01/14 04:31:20;;;;;;;12.35;1.88;;;5.30;99.90;;;;;;6184152;23;20113;-78
2023/01/14 04:33:46;;;;;;;11.60;1.10;;;5.20;99.90;;;;;;6183452;23;20009;-79
2023/01/14 04:36:11;;;;;;;11.35;0.70;;;5.30;99.90;;;;;;6183550;23;20019;-78
2023/01/14 04:38:37;;;;;;;12.02;0.70;;;5.30;99.90;;;;;;6184232;23;20323;-78
2023/01/14 04:41:03;;;;;;;9.10;0.60;;;5.30;99.90;;;;;;6210158;23;20442;-79
2023/01/14 04:43:29;;;;;;;13.35;0.82;;;5.40;99.90;;;;;;6183410;23;20009;-78
2023/01/14 04:45:55;;;;;;;14.73;0.68;;;5.30;99.90;;;;;;6183686;23;20001;-78
2023/01/14 04:48:22;;;;;;;10.07;0.80;;;5.40;99.90;;;;;;6183955;23;20015;-77
2023/01/14 04:50:50;;;;;;;11.45;0.88;;;5.40;99.90;;;;;;6183591;23;20004;-78
2023/01/14 04:53:23;;;;;;;6.78;0.75;;;5.40;99.90;;;;;;6210299;23;20012;-78
2023/01/14 04:55:55;;;;;;;14.35;1.60;;;5.40;99.90;;;;;;6183549;23;20008;-77
2023/01/14 04:58:21;;;;;;;12.25;0.80;;;5.50;99.90;;;;;;6185576;23;20012;-79
2023/01/14 05:00:47;;;;;;;10.18;1.60;;;5.50;99.90;;;;;;6185683;23;20013;-78
2023/01/14 05:03:15;;;;;;;13.82;0.88;;;5.50;99.90;;;;;;6184902;23;20012;-80
2023/01/14 05:05:41;;;;;;;12.88;1.05;;;5.50;99.90;;;;;;6185632;23;20091;-79
2023/01/14 05:08:08;;;;;;;12.68;1.02;;;5.60;99.90;;;;;;6185178;23;20071;-78
2023/01/14 05:10:34;;;;;;;10.15;0.70;;;5.60;99.90;;;;;;6185423;23;20011;-78
2023/01/14 05:13:02;;;;;;;11.82;0.60;;;5.60;99.90;;;;;;6185281;23;20040;-78
2023/01/14 05:15:44;;;;;;;15.80;0.88;;;5.50;99.90;;;;;;6211336;23;20075;-78
2023/01/14 05:18:12;;;;;;;11.20;0.57;;;5.60;99.90;;;;;;6212015;23;20012;-79
2023/01/14 05:20:39;;;;;;;13.95;0.80;;;5.60;99.90;;;;;;6185231;23;20016;-78
2023/01/14 05:23:13;;;;;;;11.57;0.77;;;5.50;99.90;;;;;;6185057;23;20018;-79
2023/01/14 05:25:39;;;;;;;12.07;1.13;;;5.50;99.90;;;;;;6212283;23;20418;-78
2023/01/14 05:28:08;;;;;;;9.70;0.82;;;5.50;99.90;;;;;;6184560;23;20063;-78
2023/01/14 05:30:34;;;;;;;9.98;0.60;;;5.60;99.90;;;;;;6159941;23;20326;-78
2023/01/14 05:33:00;;;;;;;16.77;1.50;;;5.50;99.90;;;;;;6160366;23;20067;-78
2023/01/14 05:35:26;;;;;;;10.23;0.70;;;5.50;99.90;;;;;;6185185;23;20010;-78
2023/01/14 05:37:52;;;;;;;6.70;0.40;;;5.50;99.90;;;;;;6184953;23;20095;-78
2023/01/14 05:40:18;;;;;;;4.30;0.43;;;5.50;99.90;;;;;;6185409;23;20504;-78
2023/01/14 05:48:29;;;;;;;10.70;0.55;;;5.60;99.90;;;;;;6149246;23;20156;-78
2023/01/14 05:50:57;;;;;;;10.35;0.95;;;5.60;99.90;;;;;;6123718;23;20033;-78
2023/01/14 05:53:24;;;;;;;7.30;0.70;;;5.60;99.90;;;;;;6148685;23;20017;-78
2023/01/14 05:55:50;;;;;;;8.82;0.85;;;5.70;99.90;;;;;;6124235;23;20026;-78
2023/01/14 05:58:17;;;;;;;11.80;0.88;;;5.70;99.90;;;;;;6148640;23;20043;-78
2023/01/14 06:06:40;;;;;;;15.48;1.08;;;5.70;99.90;;;;;;6066051;23;20384;-77
2023/01/14 06:09:10;;;;;;;12.48;0.50;;;5.80;99.90;;;;;;6089538;23;20400;-79
2023/01/14 06:11:39;;;;;;;12.38;0.60;;;5.70;99.90;;;;;;6090031;23;20014;-78
2023/01/14 06:14:05;;;;;;;11.55;0.85;;;5.70;99.90;;;;;;6064257;23;20487;-77
2023/01/14 06:16:39;;;;;;;6.60;0.70;;;5.70;99.90;;;;;;6090029;23;20011;-78
2023/01/14 06:19:09;;;;;;;9.25;0.50;;;5.70;99.90;;;;;;6065750;23;20045;-78
2023/01/14 06:21:35;;;;;;;8.40;0.65;;;5.70;99.90;;;;;;6041790;23;20252;-78
2023/01/14 06:24:01;;;;;;;12.10;0.50;;;5.70;99.90;;;;;;6094047;23;20006;-77
2023/01/14 06:26:30;;;;;;;9.82;0.95;;;5.70;99.90;;;;;;6095092;23;20041;-78
2023/01/14 06:29:00;;;;;;;10.73;1.30;;;5.70;99.90;;;;;;6118488;23;20085;-78
2023/01/14 06:31:25;;;;;;;;;;;5.80;99.90;;;;;;6094962;23;20028;-78
2023/01/14 06:33:51;;;;;;;8.70;0.70;;;5.70;99.90;;;;;;6119031;23;19908;-78
2023/01/14 06:36:17;;;;;;;8.65;0.50;;;5.80;99.90;;;;;;6094522;23;20029;-78
2023/01/14 06:38:43;;;;;;;9.18;0.60;;;5.80;99.90;;;;;;6179698;23;20008;-78
2023/01/14 06:41:10;;;;;;;9.02;0.60;;;5.80;99.90;;;;;;6184432;23;20012;-78
2023/01/14 06:43:36;;;;;;;10.10;0.65;;;5.80;99.90;;;;;;6184492;23;20048;-78
2023/01/14 06:46:02;;;;;;;9.40;0.82;;;5.90;99.90;;;;;;6158900;23;20004;-78
2023/01/14 06:48:28;;;;;;;8.13;0.40;;;5.90;99.90;;;;;;6184355;23;20009;-78
2023/01/14 06:50:54;;;;;;;8.30;0.43;;;5.90;99.90;;;;;;6184403;23;20437;-78
2023/01/14 06:53:24;;;;;;;10.05;0.65;;;5.90;99.90;;;;;;6184177;23;20009;-78
2023/01/14 06:55:50;;;;;;;12.73;0.60;;;5.90;99.90;;;;;;6184061;23;20023;-78
2023/01/14 06:58:15;;;;;;;7.95;0.50;;;6.00;99.90;;;;;;6183886;23;20036;-78
2023/01/14 07:00:41;;;;;;;6.65;0.50;;;6.00;99.90;;;;;;6183867;23;20008;-78
2023/01/14 07:03:07;;;;;;;6.63;0.47;;;6.00;99.90;;;;;;6183948;23;20793;-77
2023/01/14 07:05:32;;;;;;;7.75;0.55;;;6.00;99.90;;;;;;6184455;23;20019;-78
2023/01/14 07:07:58;;;;;;;11.60;0.80;;;6.10;99.90;;;;;;6183944;23;20052;-77
2023/01/14 07:10:24;;;;;;;6.70;0.70;;;6.10;99.90;;;;;;6210904;23;20005;-78
2023/01/14 07:12:51;;;;;;;4.43;0.50;;;6.10;99.90;;;;;;6183248;23;20055;-78
2023/01/14 07:15:20;;;;;;;7.05;0.60;;;6.20;99.90;;;;;;6183854;23;20434;-78
2023/01/14 07:17:47;;;;;;;7.53;0.50;;;6.10;99.90;;;;;;6211307;23;20008;-78
2023/01/14 07:20:13;;;;;;;9.38;0.65;;;6.10;99.90;;;;;;6184333;23;20015;-77
2023/01/14 07:22:39;;;;;;;8.30;0.60;;;6.20;99.90;;;;;;6159364;23;20012;-78
2023/01/14 07:25:06;;;;;;;9.52;0.80;;;6.20;99.90;;;;;;6184438;23;20460;-78
2023/01/14 07:27:32;;;;;;;12.93;0.60;;;6.20;99.90;;;;;;6183622;23;20020;-79
2023/01/14 07:29:59;;;;;;;6.78;0.73;;;6.20;99.90;;;;;;6184090;23;20004;-79
2023/01/14 07:32:25;;;;;;;8.43;0.47;;;6.10;99.90;;;;;;6208525;23;20009;-78
2023/01/14 07:34:51;;;;;;;5.90;0.55;;;6.20;99.90;;;;;;6209308;23;20005;-79
2023/01/14 07:37:17;;;;;;;9.48;0.50;;;6.10;99.90;;;;;;6183836;23;20031;-79
2023/01/14 07:39:43;;;;;;;9.98;0.80;;;6.10;99.90;;;;;;6183908;23;20560;-79
2023/01/14 07:42:09;;;;;;;8.43;0.60;;;6.10;99.90;;;;;;6209468;23;20047;-78
2023/01/14 07:44:35;;;;;;;9.38;0.50;;;6.10;99.90;;;;;;6183699;23;20001;-78
2023/01/14 07:47:01;;;;;;;7.63;0.50;;;6.10;99.90;;;;;;6183535;23;20011;-79
2023/01/14 07:49:27;;;;;;;4.60;0.40;;;6.10;99.90;;;;;;6183473;23;20015;-78
2023/01/14 07:51:53;;;;;;;5.88;0.40;;;6.10;99.90;;;;;;6183467;23;20017;-79
2023/01/14 07:54:19;;;;;;;6.88;0.60;;;6.10;99.90;;;;;;6183662;23;20019;-78
2023/01/14 07:56:46;;;;;;;9.13;1.00;;;6.10;99.90;;;;;;6208246;23;20342;-78
2023/01/14 07:59:12;;;;;;;6.03;0.50;;;6.20;99.90;;;;;;6183381;23;20011;-77
2023/01/14 08:01:38;;;;;;;7.95;0.55;;;6.20;99.90;;;;;;6158920;23;20087;-79
2023/01/14 08:04:04;;;;;;;9.30;0.60;;;6.20;99.90;;;;;;6209175;23;20012;-77
2023/01/14 08:06:30;;;;;;;9.00;0.50;;;6.20;99.90;;;;;;6158614;23;20445;-78
2023/01/14 08:08:58;;;;;;;7.35;0.60;;;6.20;99.90;;;;;;6183910;23;20024;-78
2023/01/14 08:11:24;;;;;;;7.47;0.60;;;6.20;99.90;;;;;;6210681;23;20017;-78
2023/01/14 08:13:50;;;;;;;8.90;0.77;;;6.20;99.90;;;;;;6210087;23;20001;-78
2023/01/14 08:16:15;;;;;;;8.57;0.40;;;6.20;99.90;;;;;;6210012;23;20389;-80
2023/01/14 08:18:41;;;;;;;7.00;0.47;;;6.20;99.90;;;;;;6183534;23;20032;-78
2023/01/14 08:21:09;;;;;;;8.43;0.50;;;6.20;99.90;;;;;;6183070;23;20379;-78
2023/01/14 08:23:36;;;;;;;7.55;0.60;;;6.20;99.90;;;;;;6209929;23;20422;-78
2023/01/14 08:26:06;;;;;;;8.13;0.40;;;6.20;99.90;;;;;;6183176;23;20540;-79
2023/01/14 08:28:32;;;;;;;7.95;0.40;;;6.20;99.90;;;;;;6158971;23;20394;-78
2023/01/14 08:31:15;;;;;;;8.10;0.50;;;6.30;99.90;;;;;;6183535;23;20493;-79
2023/01/14 08:33:43;;;;;;;6.50;0.40;;;6.30;99.90;;;;;;6211637;23;20021;-79
2023/01/14 08:36:12;;;;;;;8.70;0.45;;;6.30;99.90;;;;;;6184996;23;20008;-78
2023/01/14 08:38:40;;;;;;;10.38;0.93;;;6.30;99.90;;;;;;6159800;23;20329;-79
2023/01/14 08:41:11;;;;;;;5.60;0.82;;;6.30;99.90;;;;;;6211637;23;20485;-78
2023/01/14 08:43:37;;;;;;;7.70;0.98;;;6.40;99.90;;;;;;6185490;23;20004;-79
2023/01/14 08:46:05;;;;;;;7.95;0.60;;;6.40;99.90;;;;;;6185328;23;20008;-78
2023/01/14 08:48:31;;;;;;;8.68;0.68;;;6.40;99.90;;;;;;6184593;23;20071;-78
2023/01/14 08:51:02;;;;;;;6.05;0.50;;;6.40;99.90;;;;;;6183453;23;20289;-78
2023/01/14 08:53:31;;;;;;;6.50;0.50;;;6.50;99.90;;;;;;6209234;23;20008;-78
2023/01/14 08:55:58;;;;;;;7.72;0.50;;;6.40;99.90;;;;;;6210068;23;20009;-78
2023/01/14 08:58:25;;;;;;;2.67;0.40;;;6.50;99.90;;;;;;6170466;23;20478;-78
2023/01/14 09:01:10;;;;;;;5.68;0.40;;;6.50;99.90;;;;;;6147486;23;20048;-78
2023/01/14 09:03:37;;;;;;;6.82;0.60;;;6.50;99.90;;;;;;6173924;23;20004;-79
2023/01/14 09:06:07;;;;;;;4.32;0.35;;;6.50;99.90;;;;;;6172234;23;20019;-77
2023/01/14 09:17:15;;;;;;;4.05;0.35;;;6.60;99.90;;;;;;6198713;23;20012;-78
2023/01/14 09:20:08;;;;;;;2.65;0.30;;;6.70;99.90;;;;;;6197592;23;20091;-78
2023/01/14 09:22:33;;;;;;;7.60;0.47;;;6.70;99.90;;;;;;6198718;23;20490;-78
2023/01/14 09:24:59;;;;;;;7.18;0.60;;;6.70;99.90;;;;;;6179872;23;20028;-78
2023/01/14 09:27:27;;;;;;;3.80;0.63;;;6.70;99.90;;;;;;6183953;23;20484;-79
2023/01/14 09:29:53;;;;;;;3.30;0.43;;;6.70;99.90;;;;;;6184684;23;20016;-79
2023/01/14 09:32:19;;;;;;;7.57;0.50;;;6.70;99.90;;;;;;6184430;23;20111;-78
2023/01/14 09:34:48;;;;;;;4.53;0.45;;;6.80;99.90;;;;;;6158977;23;20008;-79
2023/01/14 09:37:24;;;;;;;4.30;0.30;;;6.80;99.90;;;;;;6184089;23;20059;-78
2023/01/14 09:39:51;;;;;;;2.67;0.32;;;6.80;99.90;;;;;;6184409;23;20004;-80
2023/01/14 09:42:45;;;;;;;2.53;0.40;;;6.80;99.90;;;;;;6184890;23;20020;-79
2023/01/14 09:45:11;;;;;;;3.20;0.25;;;6.90;99.90;;;;;;6182574;23;20005;-78
2023/01/14 09:47:37;;;;;;;3.03;0.40;;;6.90;99.90;;;;;;6211301;23;20088;-79
2023/01/14 09:50:06;;;;;;;2.67;0.30;;;6.90;99.90;;;;;;6184488;23;20009;-78
2023/01/14 09:53:01;;;;;;;6.80;0.33;;;7.00;99.90;;;;;;6208724;23;20092;-79
2023/01/14 09:55:33;;;;;;;6.18;0.38;;;7.00;99.90;;;;;;6170275;23;20480;-79
2023/01/14 09:58:09;;;;;;;1.92;0.30;;;7.00;99.90;;;;;;6184294;23;20143;-79
2023/01/14 10:00:57;;;;;;;4.05;0.30;;;7.10;99.90;;;;;;6211311;23;20009;-77
2023/01/14 10:03:54;;;;;;;4.97;0.45;;;7.10;99.90;;;;;;6155312;23;20016;-78
2023/01/14 10:06:20;;;;;;;4.70;0.20;;;7.10;99.90;;;;;;6184426;23;20338;-78
2023/01/14 10:09:01;;;;;;;1.83;0.20;;;7.20;99.90;;;;;;6184359;23;20421;-78
2023/01/14 10:11:31;;;;;;;3.75;0.20;;;7.20;99.90;;;;;;6184642;23;20040;-78
2023/01/14 10:14:02;;;;;;;4.47;0.15;;;7.20;99.90;;;;;;6210295;23;20017;-78
2023/01/14 10:16:39;;;;;;;2.75;0.20;;;7.20;99.90;;;;;;6184434;23;20020;-78
2023/01/14 10:19:14;;;;;;;2.67;0.20;;;7.30;99.90;;;;;;6158804;23;20004;-77
2023/01/14 10:21:53;;;;;;;4.20;0.20;;;7.30;99.90;;;;;;6208861;23;20017;-78
2023/01/14 10:24:20;;;;;;;3.45;0.20;;;7.30;99.90;;;;;;6209288;23;20008;-78
2023/01/14 10:26:48;;;;;;;1.98;0.20;;;7.30;99.90;;;;;;6184168;23;20015;-78
2023/01/14 10:29:16;;;;;;;1.90;0.20;;;7.30;99.90;;;;;;6184420;23;20398;-78
2023/01/14 10:32:00;;;;;;;3.38;0.30;;;7.40;99.90;;;;;;6184396;23;20083;-81
2023/01/14 10:34:33;;;;;;;5.18;0.20;;;7.40;99.90;;;;;;6183341;23;20016;-78
2023/01/14 10:36:59;;;;;;;2.70;0.25;;;7.50;99.90;;;;;;6183712;23;20015;-78
2023/01/14 10:39:25;;;;;;;3.15;0.20;;;7.40;99.90;;;;;;6184064;23;20009;-78
2023/01/14 10:41:51;;;;;;;1.65;0.15;;;7.40;99.90;;;;;;6183861;23;20467;-78
2023/01/14 10:44:27;;;;;;;3.15;0.20;;;7.50;99.90;;;;;;6183886;23;20019;-78
2023/01/14 10:47:00;;;;;;;1.80;0.20;;;7.50;99.90;;;;;;6184076;23;20008;-79
2023/01/14 10:49:54;;;;;;;2.28;0.17;;;7.50;99.90;;;;;;6183782;23;20013;-79
2023/01/14 10:52:29;;;;;;;4.50;0.20;;;7.50;99.90;;;;;;6184168;23;20047;-78
2023/01/14 10:55:12;;;;;;;2.58;0.40;;;7.60;99.90;;;;;;6209788;23;20020;-78
2023/01/14 10:57:48;;;;;;;2.70;0.20;;;7.60;99.90;;;;;;6184230;23;20079;-79
2023/01/14 11:00:44;;;;;;;4.55;0.35;;;7.60;99.90;;;;;;6210661;23;20114;-78
2023/01/14 11:03:16;;;;;;;2.65;0.20;;;7.70;99.90;;;;;;6183855;23;20035;-80
2023/01/14 11:05:42;;;;;;;4.20;0.15;;;7.70;99.90;;;;;;6183326;23;20315;-78
2023/01/14 11:08:14;;;;;;;1.70;0.20;;;7.80;99.90;;;;;;6183810;23;20115;-79
2023/01/14 11:10:41;;;;;;;2.15;0.20;;;7.80;99.90;;;;;;6209006;23;20088;-78
2023/01/14 11:13:27;;;;;;;1.73;0.20;;;7.90;99.90;;;;;;6183144;23;20016;-78
2023/01/14 11:15:53;;;;;;;1.92;0.10;;;7.90;99.90;;;;;;6209524;23;20031;-78
2023/01/14 11:18:18;;;;;;;4.22;0.30;;;8.00;99.90;;;;;;6209932;23;20095;-78
2023/01/14 11:21:15;;;;;;;2.95;0.20;;;8.00;99.90;;;;;;6183565;23;20022;-79
2023/01/14 11:23:56;;;;;;;4.68;0.45;;;8.00;99.90;;;;;;6210579;23;20083;-77
2023/01/14 11:26:32;;;;;;;4.50;0.20;;;8.10;99.90;;;;;;6207489;23;20079;-78
2023/01/14 11:29:17;;;;;;;2.92;0.30;;;8.10;99.90;;;;;;6210271;23;20001;-78
2023/01/14 11:31:44;;;;;;;2.63;0.20;;;8.10;99.90;;;;;;6208775;23;20088;-77
2023/01/14 11:34:31;;;;;;;4.97;0.30;;;8.10;99.90;;;;;;6207569;23;20017;-77
2023/01/14 11:37:21;;;;;;;3.72;0.30;;;8.10;99.90;;;;;;6183585;23;20013;-77
2023/01/14 11:39:48;;;;;;;;;;;8.20;99.90;;;;;;6184084;23;20067;-78
2023/01/14 11:42:41;;;;;;;3.65;0.50;;;8.20;99.90;;;;;;6182621;23;19947;-77
2023/01/14 11:45:10;;;;;;;0.90;0.10;;;8.30;99.90;;;;;;6206697;23;20604;-78
2023/01/14 11:47:44;;;;;;;2.33;0.30;;;8.30;99.90;;;;;;6208137;23;20016;-78
2023/01/14 11:50:15;;;;;;;3.15;0.30;;;8.30;99.90;;;;;;6158554;23;20438;-79
2023/01/14 11:52:40;;;;;;;2.15;0.20;;;8.40;99.90;;;;;;6209868;23;20028;-78
2023/01/14 11:55:16;;;;;;;1.75;0.20;;;8.40;99.90;;;;;;6183070;23;20017;-78
2023/01/14 11:57:43;;;;;;;2.35;0.13;;;8.40;99.90;;;;;;6183732;23;20008;-77
2023/01/14 12:00:11;;;;;;;1.40;0.13;;;8.50;99.90;;;;;;6158676;23;20028;-78
2023/01/14 12:02:44;;;;;;;0.97;0.20;;;8.50;99.90;;;;;;6182689;23;20401;-78
2023/01/14 12:05:21;;;;;;;1.55;0.10;;;8.50;99.90;;;;;;6157832;23;20009;-77
2023/01/14 12:07:50;;;;;;;1.67;0.10;;;8.50;99.90;;;;;;6184732;23;20017;-78
2023/01/14 12:10:30;;;;;;;1.25;0.20;;;8.60;99.90;;;;;;6209615;23;20016;-78
2023/01/14 12:19:15;;;;;;;0.47;0.10;;;8.60;99.90;;;;;;6211267;23;20008;-78
2023/01/14 12:21:51;;;;;;;1.67;0.10;;;8.60;99.90;;;;;;6159995;23;20021;-78
2023/01/14 12:24:48;;;;;;;0.88;0.10;;;8.70;99.90;;;;;;6185088;23;20465;-77
2023/01/14 12:27:42;;;;;;;1.13;0.10;;;8.70;99.90;;;;;;6161353;23;20009;-78
2023/01/14 12:30:27;;;;;;;3.40;0.20;;;8.70;99.90;;;;;;6185161;23;20352;-77
2023/01/14 12:33:08;;;;;;;0.90;0.10;;;8.80;99.90;;;;;;6125054;23;20008;-78
2023/01/14 12:36:22;;;;;;;0.60;0.10;;;8.70;99.90;;;;;;6185251;23;20494;-80
2023/01/14 12:47:53;;;;;;;0.50;0.10;;;8.80;99.90;;;;;;6090001;23;20054;-78
2023/01/14 12:50:19;;;;;;;0.43;0.10;;;8.80;99.90;;;;;;6089636;23;20089;-78
2023/01/14 12:52:50;;;;;;;0.73;0.10;;;8.80;99.90;;;;;;6065730;23;20101;-78
2023/01/14 12:55:40;;;;;;;0.50;0.10;;;8.90;99.90;;;;;;6060136;23;20030;-77
2023/01/14 12:58:18;;;;;;;0.95;0.10;;;8.90;99.90;;;;;;6036838;23;20101;-78
2023/01/14 13:01:01;;;;;;;1.13;0.10;;;8.90;99.90;;;;;;6036795;23;20015;-77
2023/01/14 13:03:36;;;;;;;0.45;0.10;;;8.80;99.90;;;;;;6061239;23;20015;-77
2023/01/14 13:06:14;;;;;;;0.55;0.00;;;8.90;99.90;;;;;;6060714;23;20015;-77
2023/01/14 13:08:41;;;;;;;0.55;0.00;;;8.90;99.90;;;;;;6036737;23;20006;-78
2023/01/14 13:11:13;;;;;;;0.05;0.00;;;8.90;99.90;;;;;;6060868;23;20026;-78
2023/01/14 13:13:42;;;;;;;0.60;0.10;;;8.90;99.90;;;;;;6036436;23;20007;-79
2023/01/14 13:16:31;;;;;;;0.70;0.10;;;8.90;99.90;;;;;;6178836;23;20020;-77
2023/01/14 13:18:58;;;;;;;0.47;0.10;;;8.90;99.90;;;;;;6130124;23;20009;-78
2023/01/14 13:22:02;;;;;;;1.20;0.10;;;9.00;99.90;;;;;;6154512;23;20104;-77
2023/01/14 13:24:30;;;;;;;0.55;0.10;;;8.90;99.90;;;;;;6129586;23;20020;-78
2023/01/14 13:26:59;;;;;;;0.98;0.05;;;9.00;99.90;;;;;;6179273;23;20002;-78
2023/01/14 13:29:30;;;;;;;0.30;0.10;;;8.90;99.90;;;;;;6179324;23;20127;-79
2023/01/14 13:31:58;;;;;;;0.93;0.10;;;9.00;99.90;;;;;;6179079;23;20016;-80
2023/01/14 13:34:26;;;;;;;0.30;0.10;;;9.00;99.90;;;;;;6154656;23;20020;-78
2023/01/14 13:37:04;;;;;;;0.38;0.10;;;9.00;99.90;;;;;;6179885;23;20028;-78
2023/01/14 13:39:31;;;;;;;0.75;0.10;;;9.00;99.90;;;;;;6179015;23;20833;-78
2023/01/14 13:42:00;;;;;;;0.30;0.10;;;9.00;99.90;;;;;;6179246;23;20028;-78
2023/01/14 13:44:31;;;;;;;1.05;0.10;;;9.10;99.90;;;;;;6129916;23;20013;-78
2023/01/14 13:47:06;;;;;;;0.45;0.10;;;9.00;99.90;;;;;;6154519;23;20021;-77
2023/01/14 13:49:37;;;;;;;1.75;0.10;;;9.10;99.90;;;;;;6130417;23;20017;-78
2023/01/14 13:52:25;;;;;;;1.80;0.20;;;9.10;99.90;;;;;;6180701;23;20035;-78
2023/01/14 13:55:43;;;;;;;0.30;0.10;;;9.10;99.90;;;;;;6201820;23;20024;-77
2023/01/14 13:58:36;;;;;;;0.52;0.20;;;9.10;99.90;;;;;;6208336;23;20009;-77
2023/01/14 14:01:26;;;;;;;0.35;0.20;;;9.20;99.90;;;;;;6203854;23;20079;-78
2023/01/14 14:03:57;;;;;;;1.42;0.10;;;9.20;99.90;;;;;;6178853;23;20008;-79